createdAt,value
2024-03-07T00:00:31.292Z,119.55
2024-03-07T00:02:58.324Z,122.07
2024-03-07T00:05:26.389Z,120.28
2024-03-07T00:07:54.169Z,110.03
2024-03-07T00:10:22.740Z,117.82
2024-03-07T00:12:49.956Z,126.75
2024-03-07T00:15:17.366Z,123.70
2024-03-07T00:17:44.740Z,112.68
2024-03-07T00:20:21.304Z,123.95
2024-03-07T00:22:50.708Z,117.30
2024-03-07T00:25:21.652Z,133.05
2024-03-07T00:27:48.866Z,125.10
2024-03-07T00:30:20.062Z,126.50
2024-03-07T00:32:48.987Z,118.30
2024-03-07T00:35:16.248Z,115.95
2024-03-07T00:37:43.711Z,132.90
2024-03-07T00:40:11.971Z,111.90
2024-03-07T00:42:39.057Z,133.60
2024-03-07T00:45:06.667Z,126.47
2024-03-07T00:47:33.831Z,113.63
2024-03-07T00:50:01.549Z,124.63
2024-03-07T00:52:28.552Z,119.85
2024-03-07T00:54:55.704Z,130.30
2024-03-07T00:57:22.589Z,119.93
2024-03-07T00:59:50.393Z,132.70
2024-03-07T01:02:18.669Z,125.25
2024-03-07T01:04:45.919Z,134.93
2024-03-07T01:07:12.894Z,126.05
2024-03-07T01:09:39.743Z,113.05
2024-03-07T01:12:07.333Z,116.18
2024-03-07T01:14:34.304Z,120.93
2024-03-07T01:17:01.289Z,123.38
2024-03-07T01:19:28.207Z,114.03
2024-03-07T01:21:55.215Z,119.03
2024-03-07T01:24:22.262Z,106.45
2024-03-07T01:26:49.609Z,109.55
2024-03-07T01:29:17.147Z,120.75
2024-03-07T01:31:44.512Z,126.38
2024-03-07T01:34:11.688Z,114.95
2024-03-07T01:36:38.884Z,132.52
2024-03-07T01:39:06.493Z,132.05
2024-03-07T01:41:35.997Z,140.52
2024-03-07T01:44:03.231Z,139.57
2024-03-07T01:46:31.230Z,143.88
2024-03-07T01:48:59.333Z,138.30
2024-03-07T01:51:26.399Z,128.95
2024-03-07T01:53:53.868Z,124.00
2024-03-07T01:56:21.220Z,132.30
2024-03-07T01:58:48.973Z,150.23
2024-03-07T02:01:16.955Z,142.55
2024-03-07T02:03:44.423Z,149.60
2024-03-07T02:06:13.479Z,129.02
2024-03-07T02:08:41.033Z,141.73
2024-03-07T02:11:09.585Z,132.95
2024-03-07T02:13:36.579Z,131.18
2024-03-07T02:16:03.586Z,124.68
2024-03-07T02:18:30.644Z,144.63
2024-03-07T02:20:57.636Z,131.88
2024-03-07T02:23:24.549Z,141.70
2024-03-07T02:25:51.465Z,140.27
2024-03-07T02:28:18.333Z,130.15
2024-03-07T02:30:47.021Z,133.50
2024-03-07T02:33:14.026Z,139.63
2024-03-07T02:35:41.135Z,144.25
2024-03-07T02:38:08.146Z,129.10
2024-03-07T02:40:35.217Z,130.93
2024-03-07T02:43:04.875Z,131.82
2024-03-07T02:45:32.211Z,130.15
2024-03-07T02:47:59.198Z,133.43
2024-03-07T02:50:26.433Z,128.40
2024-03-07T02:52:54.274Z,123.25
2024-03-07T02:55:21.902Z,119.18
2024-03-07T02:57:51.371Z,120.63
2024-03-07T03:00:21.943Z,117.55
2024-03-07T03:02:49.786Z,126.50
2024-03-07T03:05:17.341Z,115.10
2024-03-07T03:07:54.515Z,118.47
2024-03-07T03:10:28.242Z,116.35
2024-03-07T03:12:56.710Z,117.35
2024-03-07T03:15:23.623Z,102.72
2024-03-07T03:17:50.635Z,96.07
2024-03-07T03:20:26.968Z,101.25
2024-03-07T03:23:10.537Z,101.80
2024-03-07T03:25:42.971Z,92.13
2024-03-07T03:28:13.588Z,93.25
2024-03-07T03:30:42.875Z,84.38
2024-03-07T03:33:10.441Z,80.95
2024-03-07T03:35:41.404Z,86.95
2024-03-07T03:38:09.233Z,92.78
2024-03-07T03:40:36.645Z,87.68
2024-03-07T03:43:03.949Z,83.63
2024-03-07T03:45:30.906Z,85.80
2024-03-07T03:47:59.059Z,87.57
2024-03-07T03:50:26.210Z,86.38
2024-03-07T03:52:53.697Z,87.65
2024-03-07T03:55:22.190Z,83.20
2024-03-07T03:57:50.584Z,78.60
2024-03-07T04:00:18.340Z,79.45
2024-03-07T04:02:50.302Z,81.90
2024-03-07T04:05:20.755Z,84.70
2024-03-07T04:07:47.894Z,77.75
2024-03-07T04:10:16.745Z,85.20
2024-03-07T04:12:43.703Z,74.22
2024-03-07T04:15:12.669Z,75.93
2024-03-07T04:17:39.896Z,77.55
2024-03-07T04:20:08.206Z,73.22
2024-03-07T04:22:35.831Z,66.80
2024-03-07T04:25:03.348Z,74.75
2024-03-07T04:27:30.584Z,76.95
2024-03-07T04:29:57.750Z,72.63
2024-03-07T04:32:25.018Z,70.18
2024-03-07T04:34:52.411Z,77.03
2024-03-07T04:37:19.350Z,74.53
2024-03-07T04:39:47.218Z,77.90
2024-03-07T04:42:14.214Z,69.40
2024-03-07T04:44:41.443Z,81.78
2024-03-07T04:47:08.899Z,68.35
2024-03-07T04:49:36.108Z,69.63
2024-03-07T04:52:04.383Z,81.03
2024-03-07T04:54:33.363Z,80.60
2024-03-07T04:57:00.446Z,75.25
2024-03-07T04:59:27.439Z,68.43
2024-03-07T05:01:54.354Z,73.65
2024-03-07T05:04:21.250Z,71.95
2024-03-07T05:06:51.107Z,69.43
2024-03-07T05:09:27.548Z,75.23
2024-03-07T05:11:55.297Z,72.50
2024-03-07T05:14:23.508Z,66.93
2024-03-07T05:17:06.433Z,78.93
2024-03-07T05:19:34.697Z,75.30
2024-03-07T05:22:02.192Z,69.72
2024-03-07T05:24:29.036Z,79.68
2024-03-07T05:26:56.209Z,76.50
2024-03-07T05:29:23.831Z,64.40
2024-03-07T05:31:50.777Z,73.75
2024-03-07T05:34:20.590Z,81.57
2024-03-07T05:36:48.391Z,83.35
2024-03-07T05:39:16.648Z,94.05
2024-03-07T05:41:46.401Z,90.95
2024-03-07T05:44:13.782Z,74.37
2024-03-07T05:46:48.100Z,85.97
2024-03-07T05:49:15.872Z,66.90
2024-03-07T05:51:43.665Z,92.75
2024-03-07T05:54:10.632Z,77.85
2024-03-07T05:56:38.106Z,77.45
2024-03-07T05:59:05.721Z,85.38
2024-03-07T06:01:35.688Z,72.55
2024-03-07T06:04:03.680Z,71.65
2024-03-07T06:06:33.220Z,85.30
2024-03-07T06:09:02.371Z,77.13
2024-03-07T06:11:29.453Z,80.07
2024-03-07T06:13:56.489Z,132.18
2024-03-07T06:16:23.462Z,131.15
2024-03-07T06:18:50.376Z,75.32
2024-03-07T06:21:17.422Z,71.00
2024-03-07T06:23:44.656Z,72.80
2024-03-07T06:26:18.266Z,70.05
2024-03-07T06:28:46.696Z,76.53
2024-03-07T06:31:13.668Z,68.38
2024-03-07T06:33:40.669Z,76.05
2024-03-07T06:36:07.832Z,323.58
2024-03-07T06:38:34.793Z,155.18
2024-03-07T06:41:01.736Z,80.40
2024-03-07T06:43:28.562Z,78.93
2024-03-07T06:45:56.091Z,87.78
2024-03-07T06:48:23.376Z,71.15
2024-03-07T06:50:50.555Z,67.68
2024-03-07T06:53:18.320Z,75.55
2024-03-07T06:55:45.516Z,71.82
2024-03-07T06:58:12.640Z,66.03
2024-03-07T07:00:41.694Z,67.90
2024-03-07T07:03:08.961Z,68.60
2024-03-07T07:05:36.273Z,64.00
2024-03-07T07:08:03.705Z,65.28
2024-03-07T07:10:31.226Z,71.70
2024-03-07T07:12:58.296Z,59.88
2024-03-07T07:15:25.431Z,74.28
2024-03-07T07:17:52.562Z,61.80
2024-03-07T07:20:20.331Z,57.35
2024-03-07T07:22:48.662Z,60.47
2024-03-07T07:25:15.836Z,60.60
2024-03-07T07:27:50.519Z,60.63
2024-03-07T07:30:25.031Z,65.88
2024-03-07T07:32:53.142Z,63.17
2024-03-07T07:35:20.616Z,55.47
2024-03-07T07:37:49.552Z,55.22
2024-03-07T07:40:19.683Z,57.40
2024-03-07T07:42:47.990Z,54.83
2024-03-07T07:45:17.258Z,54.35
2024-03-07T07:47:54.776Z,251.60
2024-03-07T07:50:23.931Z,56.35
2024-03-07T07:52:51.803Z,40.65
2024-03-07T07:55:19.232Z,40.38
2024-03-07T07:57:47.736Z,39.97
2024-03-07T08:00:25.223Z,41.00
2024-03-07T08:03:03.252Z,36.25
2024-03-07T08:05:32.970Z,38.25
2024-03-07T08:08:03.761Z,32.83
2024-03-07T08:10:30.967Z,31.35
2024-03-07T08:13:02.826Z,33.78
2024-03-07T08:15:30.988Z,31.70
2024-03-07T08:17:58.986Z,41.55
2024-03-07T08:20:27.215Z,33.45
2024-03-07T08:22:56.563Z,30.23
2024-03-07T08:25:25.469Z,31.25
2024-03-07T08:27:54.254Z,28.33
2024-03-07T08:30:21.369Z,29.42
2024-03-07T08:32:51.025Z,43.28
2024-03-07T08:35:17.970Z,72.80
2024-03-07T08:37:46.828Z,30.25
2024-03-07T08:40:26.392Z,27.60
2024-03-07T08:42:55.740Z,30.90
2024-03-07T08:45:23.045Z,27.63
2024-03-07T08:47:51.946Z,27.10
2024-03-07T08:50:19.487Z,35.22
2024-03-07T08:52:49.346Z,27.42
2024-03-07T08:55:18.133Z,30.57
2024-03-07T08:57:47.366Z,351.15
2024-03-07T09:00:24.136Z,110.20
2024-03-07T09:02:53.784Z,42.28
2024-03-07T09:05:24.811Z,32.58
2024-03-07T09:07:53.300Z,45.47
2024-03-07T09:10:20.835Z,24.13
2024-03-07T09:12:51.518Z,27.60
2024-03-07T09:17:47.253Z,24.67
2024-03-07T09:20:17.455Z,34.25
2024-03-07T09:22:45.681Z,37.05
2024-03-07T09:25:14.695Z,46.05
2024-03-07T09:27:42.381Z,30.83
2024-03-07T09:30:13.516Z,294.85
2024-03-07T09:32:41.988Z,40.78
2024-03-07T09:35:13.544Z,25.95
2024-03-07T09:37:41.893Z,34.45
2024-03-07T09:40:13.810Z,24.55
2024-03-07T09:42:56.188Z,22.50
2024-03-07T09:45:24.698Z,21.98
2024-03-07T09:47:53.961Z,24.40
2024-03-07T09:50:24.007Z,24.73
2024-03-07T09:52:55.237Z,25.38
2024-03-07T09:55:26.819Z,23.65
2024-03-07T09:57:57.780Z,25.38
2024-03-07T10:03:00.963Z,23.88
2024-03-07T10:05:28.977Z,24.33
2024-03-07T10:07:56.938Z,25.35
2024-03-07T10:10:24.675Z,26.98
2024-03-07T10:12:54.713Z,37.60
2024-03-07T10:15:22.894Z,23.42
2024-03-07T10:17:51.775Z,25.75
2024-03-07T10:20:22.098Z,24.10
2024-03-07T10:22:51.880Z,21.45
2024-03-07T10:25:20.671Z,21.02
2024-03-07T10:27:50.517Z,20.23
2024-03-07T10:30:22.558Z,17.70
2024-03-07T10:32:54.597Z,16.48
2024-03-07T10:35:27.911Z,16.77
2024-03-07T10:37:55.813Z,14.55
2024-03-07T10:40:23.966Z,16.65
2024-03-07T10:42:55.811Z,19.35
2024-03-07T10:45:23.075Z,17.77
2024-03-07T10:48:02.692Z,21.00
2024-03-07T10:50:48.939Z,17.40
2024-03-07T10:53:43.900Z,20.08
2024-03-07T10:56:35.394Z,16.33
2024-03-07T10:59:16.500Z,18.23
2024-03-07T11:01:53.164Z,14.75
2024-03-07T11:04:24.088Z,14.90
2024-03-07T11:06:51.188Z,23.08
2024-03-07T11:09:24.424Z,20.70
2024-03-07T11:11:51.729Z,24.63
2024-03-07T11:14:19.081Z,17.63
2024-03-07T11:16:46.443Z,16.77
2024-03-07T11:19:22.522Z,17.65
2024-03-07T11:21:49.753Z,19.25
2024-03-07T11:24:26.883Z,21.10
2024-03-07T11:26:55.298Z,21.33
2024-03-07T11:29:44.793Z,19.60
2024-03-07T11:32:13.351Z,23.60
2024-03-07T11:34:42.797Z,19.20
2024-03-07T11:37:18.858Z,17.13
2024-03-07T11:39:51.683Z,20.45
2024-03-07T11:42:27.064Z,19.23
2024-03-07T11:44:58.229Z,18.75
2024-03-07T11:47:37.305Z,19.75
2024-03-07T11:50:13.462Z,19.17
2024-03-07T11:52:45.887Z,22.58
2024-03-07T11:55:13.515Z,19.33
2024-03-07T11:57:42.008Z,17.27
2024-03-07T12:00:12.103Z,17.38
2024-03-07T12:02:44.960Z,15.98
2024-03-07T12:05:11.968Z,20.33
2024-03-07T12:07:39.693Z,17.58
2024-03-07T12:10:08.202Z,21.90
2024-03-07T12:12:35.401Z,23.23
2024-03-07T12:15:10.251Z,29.55
2024-03-07T12:17:37.338Z,21.33
2024-03-07T12:20:25.061Z,29.10
2024-03-07T12:22:54.478Z,23.52
2024-03-07T12:25:23.177Z,20.25
2024-03-07T12:28:07.221Z,19.17
2024-03-07T12:30:35.726Z,19.40
2024-03-07T12:33:05.901Z,21.77
2024-03-07T12:35:33.614Z,29.23
2024-03-07T12:38:01.132Z,22.58
2024-03-07T12:40:31.109Z,23.98
2024-03-07T12:42:58.054Z,20.48
2024-03-07T12:45:25.013Z,20.70
2024-03-07T12:47:55.913Z,21.77
2024-03-07T12:50:23.038Z,19.40
2024-03-07T12:52:53.789Z,20.88
2024-03-07T12:55:22.767Z,20.65
2024-03-07T12:57:51.436Z,21.13
2024-03-07T13:00:21.758Z,20.23
2024-03-07T13:02:49.764Z,21.60
2024-03-07T13:05:22.755Z,20.05
2024-03-07T13:07:50.182Z,21.85
2024-03-07T13:10:17.404Z,17.17
2024-03-07T13:12:46.991Z,22.95
2024-03-07T13:15:14.137Z,17.67
2024-03-07T13:17:41.616Z,23.13
2024-03-07T13:20:14.097Z,38.55
2024-03-07T13:22:44.903Z,21.90
2024-03-07T13:27:45.209Z,19.30
2024-03-07T13:30:17.181Z,18.98
2024-03-07T13:32:46.149Z,18.63
2024-03-07T13:35:13.343Z,21.00
2024-03-07T13:37:40.261Z,21.13
2024-03-07T13:40:24.252Z,21.52
2024-03-07T13:42:53.132Z,20.90
2024-03-07T13:45:22.409Z,17.33
2024-03-07T13:47:49.934Z,18.63
2024-03-07T13:50:31.043Z,19.00
2024-03-07T13:53:19.563Z,37.40
2024-03-07T13:55:56.480Z,19.98
2024-03-07T13:58:32.824Z,18.95
2024-03-07T14:01:22.235Z,20.10
2024-03-07T14:04:02.409Z,21.20
2024-03-07T14:06:47.662Z,19.63
2024-03-07T14:09:37.697Z,19.00
2024-03-07T14:12:26.423Z,22.17
2024-03-07T14:15:32.589Z,20.70
2024-03-07T14:18:27.632Z,20.52
2024-03-07T14:21:12.398Z,18.17
2024-03-07T14:24:01.700Z,20.13
2024-03-07T14:26:47.789Z,18.60
2024-03-07T14:29:28.700Z,17.77
2024-03-07T14:31:55.593Z,19.65
2024-03-07T14:34:35.129Z,19.17
2024-03-07T14:37:19.043Z,17.92
2024-03-07T14:39:49.575Z,17.92
2024-03-07T14:42:17.030Z,18.65
2024-03-07T14:44:49.737Z,14.23
2024-03-07T14:47:20.788Z,16.90
2024-03-07T14:49:47.790Z,16.92
2024-03-07T14:52:14.716Z,17.65
2024-03-07T14:54:42.035Z,18.98
2024-03-07T14:57:11.728Z,18.25
2024-03-07T14:59:39.403Z,21.10
2024-03-07T15:02:12.159Z,31.15
2024-03-07T15:04:41.129Z,15.02
2024-03-07T15:07:11.025Z,18.30
2024-03-07T15:09:39.647Z,17.25
2024-03-07T15:12:08.491Z,17.95
2024-03-07T15:14:38.859Z,19.08
2024-03-07T15:17:08.099Z,16.40
2024-03-07T15:19:36.518Z,21.00
2024-03-07T15:22:04.704Z,16.02
2024-03-07T15:24:31.904Z,14.52
2024-03-07T15:26:59.105Z,18.90
2024-03-07T15:29:26.281Z,18.33
2024-03-07T15:31:53.515Z,19.10
2024-03-07T15:34:22.364Z,18.88
2024-03-07T15:37:00.014Z,16.80
2024-03-07T15:39:31.573Z,17.88
2024-03-07T15:42:00.786Z,17.33
2024-03-07T15:44:27.930Z,34.35
2024-03-07T15:46:55.297Z,21.10
2024-03-07T15:49:22.708Z,17.98
2024-03-07T15:51:49.565Z,20.40
2024-03-07T15:54:19.567Z,17.60
2024-03-07T15:56:47.349Z,17.33
2024-03-07T15:59:14.773Z,20.05
2024-03-07T16:01:42.421Z,17.17
2024-03-07T16:04:09.566Z,17.83
2024-03-07T16:06:36.664Z,18.55
2024-03-07T16:09:03.688Z,17.45
2024-03-07T16:11:31.228Z,17.52
2024-03-07T16:13:58.799Z,19.33
2024-03-07T16:16:25.886Z,20.83
2024-03-07T16:18:53.868Z,20.77
2024-03-07T16:21:21.070Z,30.90
2024-03-07T16:23:48.116Z,20.17
2024-03-07T16:26:18.193Z,18.40
2024-03-07T16:28:45.224Z,17.05
2024-03-07T16:31:12.424Z,23.90
2024-03-07T16:33:39.398Z,19.80
2024-03-07T16:36:06.654Z,20.02
2024-03-07T16:38:36.026Z,19.55
2024-03-07T16:41:03.092Z,21.42
2024-03-07T16:43:30.041Z,17.70
2024-03-07T16:45:57.080Z,19.58
2024-03-07T16:48:24.181Z,19.77
2024-03-07T16:50:53.353Z,22.40
2024-03-07T16:53:20.279Z,19.25
2024-03-07T16:55:49.794Z,19.00
2024-03-07T16:58:17.756Z,20.13
2024-03-07T17:00:45.286Z,19.48
2024-03-07T17:03:15.108Z,21.98
2024-03-07T17:05:44.315Z,18.45
2024-03-07T17:08:17.932Z,20.77
2024-03-07T17:10:46.481Z,28.77
2024-03-07T17:13:15.714Z,29.75
2024-03-07T17:15:44.640Z,37.38
2024-03-07T17:18:13.528Z,28.65
2024-03-07T17:20:42.087Z,46.42
2024-03-07T17:23:10.120Z,62.03
2024-03-07T17:25:37.746Z,36.53
2024-03-07T17:28:05.568Z,34.60
2024-03-07T17:30:36.964Z,32.20
2024-03-07T17:33:07.602Z,35.65
2024-03-07T17:35:38.328Z,42.10
2024-03-07T17:38:05.792Z,25.48
2024-03-07T17:40:34.909Z,31.08
2024-03-07T17:45:38.204Z,32.55
2024-03-07T17:48:08.060Z,35.45
2024-03-07T17:50:37.045Z,39.10
2024-03-07T17:53:10.475Z,34.53
2024-03-07T17:55:43.146Z,30.48
2024-03-07T17:58:12.498Z,30.15
2024-03-07T18:00:44.465Z,26.63
2024-03-07T18:03:12.330Z,22.38
2024-03-07T18:05:43.028Z,21.90
2024-03-07T18:10:52.006Z,23.70
2024-03-07T18:15:50.641Z,35.47
2024-03-07T18:18:18.730Z,148.60
2024-03-07T18:20:47.168Z,40.03
2024-03-07T18:23:15.491Z,42.65
2024-03-07T18:25:43.152Z,43.28
2024-03-07T18:28:11.043Z,38.42
2024-03-07T18:30:38.408Z,102.05
2024-03-07T18:33:06.046Z,27.27
2024-03-07T18:35:34.878Z,23.52
2024-03-07T18:38:03.062Z,28.20
2024-03-07T18:40:30.621Z,29.35
2024-03-07T18:42:58.234Z,23.55
2024-03-07T18:45:27.953Z,26.98
2024-03-07T18:47:55.509Z,28.42
2024-03-07T18:50:27.531Z,29.27
2024-03-07T18:52:57.218Z,29.77
2024-03-07T18:55:30.692Z,27.33
2024-03-07T18:58:04.189Z,31.05
2024-03-07T19:00:38.465Z,27.60
2024-03-07T19:03:09.974Z,26.27
2024-03-07T19:05:43.683Z,25.13
2024-03-07T19:08:23.739Z,25.38
2024-03-07T19:10:54.700Z,26.13
2024-03-07T19:15:50.647Z,20.73
2024-03-07T19:18:18.644Z,26.50
2024-03-07T19:20:47.130Z,24.80
2024-03-07T19:23:14.758Z,26.98
2024-03-07T19:25:42.374Z,25.85
2024-03-07T19:28:14.729Z,27.25
2024-03-07T19:30:45.835Z,25.30
2024-03-07T19:33:17.161Z,30.88
2024-03-07T19:35:58.236Z,25.25
2024-03-07T19:40:53.452Z,27.77
2024-03-07T19:43:26.307Z,24.75
2024-03-07T19:45:54.255Z,25.08
2024-03-07T19:48:26.917Z,198.02
2024-03-07T19:50:56.959Z,74.72
2024-03-07T19:53:24.384Z,31.00
2024-03-07T19:55:51.504Z,54.90
2024-03-07T19:58:20.705Z,30.08
2024-03-07T20:00:49.964Z,26.60
2024-03-07T20:03:24.050Z,25.92
2024-03-07T20:05:53.869Z,27.80
2024-03-07T20:08:22.763Z,26.27
2024-03-07T20:10:51.954Z,24.25
2024-03-07T20:13:21.065Z,29.45
2024-03-07T20:15:48.171Z,27.35
2024-03-07T20:18:15.798Z,28.25
2024-03-07T20:20:47.701Z,516.88
2024-03-07T20:23:15.537Z,128.73
2024-03-07T20:25:43.589Z,29.95
2024-03-07T20:28:10.784Z,27.30
2024-03-07T20:30:38.990Z,24.30
2024-03-07T20:33:07.009Z,25.38
2024-03-07T20:35:35.329Z,24.67
2024-03-07T20:38:06.585Z,83.00
2024-03-07T20:40:33.771Z,26.00
2024-03-07T20:43:00.951Z,82.22
2024-03-07T20:45:28.106Z,37.22
2024-03-07T20:47:55.409Z,64.50
2024-03-07T20:50:25.839Z,62.15
2024-03-07T20:52:54.755Z,83.82
2024-03-07T20:55:24.559Z,44.28
2024-03-07T20:57:52.188Z,27.92
2024-03-07T21:00:32.526Z,23.40
2024-03-07T21:02:59.807Z,23.42
2024-03-07T21:05:27.423Z,20.77
2024-03-07T21:07:54.917Z,24.60
2024-03-07T21:10:25.927Z,27.00
2024-03-07T21:12:54.246Z,23.52
2024-03-07T21:15:21.620Z,27.20
2024-03-07T21:17:49.217Z,48.45
2024-03-07T21:20:20.514Z,53.20
2024-03-07T21:22:49.154Z,27.00
2024-03-07T21:25:18.540Z,27.15
2024-03-07T21:27:50.376Z,22.88
2024-03-07T21:30:17.954Z,25.40
2024-03-07T21:32:45.968Z,25.52
2024-03-07T21:35:13.350Z,28.55
2024-03-07T21:37:44.516Z,31.08
2024-03-07T21:40:17.913Z,26.92
2024-03-07T21:42:51.927Z,26.98
2024-03-07T21:45:19.700Z,28.63
2024-03-07T21:47:47.861Z,24.50
2024-03-07T21:50:16.823Z,25.25
2024-03-07T21:52:46.206Z,26.10
2024-03-07T21:55:13.976Z,33.35
2024-03-07T21:57:43.934Z,76.65
2024-03-07T22:00:17.757Z,36.97
2024-03-07T22:02:57.549Z,28.42
2024-03-07T22:05:29.681Z,29.92
2024-03-07T22:07:57.607Z,26.75
2024-03-07T22:10:24.530Z,23.75
2024-03-07T22:12:54.058Z,27.30
2024-03-07T22:15:24.062Z,30.13
2024-03-07T22:17:54.600Z,23.05
2024-03-07T22:20:24.330Z,28.73
2024-03-07T22:22:52.841Z,36.27
2024-03-07T22:25:23.286Z,27.77
2024-03-07T22:27:51.158Z,28.75
2024-03-07T22:30:23.285Z,28.80
2024-03-07T22:32:51.992Z,25.80
2024-03-07T22:35:19.289Z,28.25
2024-03-07T22:37:49.477Z,25.65
2024-03-07T22:40:16.931Z,31.98
2024-03-07T22:42:46.913Z,29.55
2024-03-07T22:45:15.781Z,31.07
2024-03-07T22:47:43.618Z,31.30
2024-03-07T22:50:18.303Z,33.00
2024-03-07T22:52:53.937Z,31.45
2024-03-07T22:55:21.011Z,25.52
2024-03-07T22:57:47.861Z,26.92
2024-03-07T23:00:25.530Z,26.75
2024-03-07T23:02:53.195Z,23.92
2024-03-07T23:05:23.022Z,27.48
2024-03-07T23:07:51.624Z,22.92
2024-03-07T23:10:21.319Z,26.35
2024-03-07T23:12:51.038Z,26.73
2024-03-07T23:15:18.478Z,27.02
2024-03-07T23:17:46.442Z,24.17
2024-03-07T23:20:23.837Z,24.42
2024-03-07T23:22:58.669Z,37.67
2024-03-07T23:25:27.149Z,32.42
2024-03-07T23:27:55.750Z,28.77
2024-03-07T23:30:24.683Z,23.80
2024-03-07T23:32:54.007Z,25.15
2024-03-07T23:35:21.658Z,31.00
2024-03-07T23:37:49.371Z,28.02
2024-03-07T23:40:16.526Z,23.00
2024-03-07T23:42:44.349Z,22.10
2024-03-07T23:45:14.133Z,26.58
2024-03-07T23:47:44.923Z,24.33
2024-03-07T23:50:13.323Z,23.38
2024-03-07T23:52:46.481Z,24.83
2024-03-07T23:55:17.558Z,24.00
2024-03-07T23:57:45.708Z,25.83
